createdAt,value
2023-04-14T00:00:56.604Z,1.53
2023-04-14T00:03:24.088Z,1.59
2023-04-14T00:05:58.667Z,1.59
2023-04-14T00:08:25.728Z,1.55
2023-04-14T00:10:52.547Z,1.57
2023-04-14T00:13:20.580Z,1.46
2023-04-14T00:15:51.232Z,1.34
2023-04-14T00:18:17.964Z,1.26
2023-04-14T00:20:53.478Z,1.21
2023-04-14T00:23:21.327Z,1.28
2023-04-14T00:26:05.165Z,1.21
2023-04-14T00:28:36.752Z,1.16
2023-04-14T00:31:08.806Z,1.08
2023-04-14T00:33:35.622Z,1.00
2023-04-14T00:36:02.540Z,0.94
2023-04-14T00:38:32.902Z,0.90
2023-04-14T00:41:03.021Z,0.93
2023-04-14T00:43:32.376Z,1.06
2023-04-14T00:46:02.220Z,1.07
2023-04-14T00:48:32.021Z,1.09
2023-04-14T00:50:59.307Z,1.07
2023-04-14T00:53:27.412Z,1.13
2023-04-14T00:55:58.083Z,1.13
2023-04-14T00:58:25.843Z,1.14
2023-04-14T01:01:18.493Z,1.14
2023-04-14T01:03:45.663Z,1.03
2023-04-14T01:06:29.987Z,0.91
2023-04-14T01:09:12.390Z,0.81
2023-04-14T01:12:16.113Z,0.82
2023-04-14T01:15:14.661Z,0.96
2023-04-14T01:18:11.055Z,1.04
2023-04-14T01:21:19.746Z,1.04
2023-04-14T01:24:16.576Z,1.06
2023-04-14T01:27:24.924Z,0.92
2023-04-14T01:30:42.111Z,0.74
2023-04-14T01:33:20.728Z,0.74
2023-04-14T01:36:03.452Z,0.76
2023-04-14T01:38:42.224Z,0.80
2023-04-14T01:41:17.170Z,0.85
2023-04-14T01:43:54.662Z,0.86
2023-04-14T01:46:22.130Z,0.74
2023-04-14T01:48:54.049Z,0.74
2023-04-14T01:51:24.152Z,0.68
2023-04-14T01:54:07.435Z,0.67
2023-04-14T01:56:44.489Z,0.68
2023-04-14T01:59:18.170Z,0.66
2023-04-14T02:01:58.726Z,0.68
2023-04-14T02:04:31.070Z,0.64
2023-04-14T02:07:06.346Z,0.53
2023-04-14T02:09:49.674Z,0.53
2023-04-14T02:12:26.543Z,0.63
2023-04-14T02:15:02.500Z,0.62
2023-04-14T02:17:34.779Z,0.52
2023-04-14T02:20:05.082Z,0.46
2023-04-14T02:22:31.918Z,0.39
2023-04-14T02:24:58.729Z,0.41
2023-04-14T02:28:05.543Z,0.38
2023-04-14T02:30:54.653Z,0.42
2023-04-14T02:33:31.538Z,0.41
2023-04-14T02:36:48.461Z,0.51
2023-04-14T02:39:29.597Z,0.51
2023-04-14T02:42:25.493Z,0.52
2023-04-14T02:45:08.558Z,0.55
2023-04-14T02:47:46.879Z,0.59
2023-04-14T02:50:20.972Z,0.65
2023-04-14T02:52:58.880Z,0.55
2023-04-14T02:55:27.328Z,0.53
2023-04-14T02:58:00.442Z,0.49
2023-04-14T03:00:28.843Z,0.40
2023-04-14T03:03:07.118Z,0.42
2023-04-14T03:05:36.093Z,0.49
2023-04-14T03:08:05.215Z,0.55
2023-04-14T03:10:33.145Z,0.75
2023-04-14T03:13:08.578Z,0.88
2023-04-14T03:15:44.560Z,1.01
2023-04-14T03:18:14.460Z,1.10
2023-04-14T03:20:45.948Z,1.12
2023-04-14T03:23:18.935Z,1.08
2023-04-14T03:25:58.106Z,1.09
2023-04-14T03:28:38.075Z,1.04
2023-04-14T03:31:11.270Z,1.02
2023-04-14T03:34:00.226Z,1.03
2023-04-14T03:36:31.149Z,1.00
2023-04-14T03:39:04.907Z,1.03
2023-04-14T03:41:37.812Z,0.95
2023-04-14T03:44:14.578Z,0.89
2023-04-14T03:46:49.215Z,0.85
2023-04-14T03:49:20.949Z,0.85
2023-04-14T03:51:53.433Z,0.87
2023-04-14T03:54:26.502Z,0.99
2023-04-14T03:57:04.737Z,1.00
2023-04-14T03:59:37.100Z,0.99
2023-04-14T04:02:06.718Z,1.04
2023-04-14T04:04:37.041Z,1.07
2023-04-14T04:07:11.174Z,1.12
2023-04-14T04:09:43.625Z,1.18
2023-04-14T04:12:36.121Z,1.26
2023-04-14T04:15:03.409Z,1.28
2023-04-14T04:17:37.299Z,1.28
2023-04-14T04:20:15.036Z,1.30
2023-04-14T04:23:02.222Z,1.34
2023-04-14T04:25:32.237Z,1.39
2023-04-14T04:28:08.240Z,1.38
2023-04-14T04:30:51.054Z,1.41
2023-04-14T04:33:30.498Z,1.52
2023-04-14T04:36:03.133Z,1.63
2023-04-14T04:38:30.472Z,1.71
2023-04-14T04:41:01.110Z,1.74
2023-04-14T04:43:27.789Z,1.80
2023-04-14T04:46:55.399Z,1.92
2023-04-14T04:49:28.768Z,1.98
2023-04-14T04:52:00.582Z,2.05
2023-04-14T04:54:27.348Z,2.10
2023-04-14T04:57:01.843Z,2.17
2023-04-14T04:59:31.115Z,2.23
2023-04-14T05:02:08.355Z,2.30
2023-04-14T05:04:35.474Z,2.35
2023-04-14T06:53:10.670Z,9.54
2023-04-14T06:55:46.529Z,9.66
2023-04-14T06:58:13.235Z,9.54
2023-04-14T07:00:42.533Z,9.45
2023-04-14T07:03:09.325Z,9.24
2023-04-14T07:05:40.160Z,8.94
2023-04-14T07:08:07.369Z,8.76
2023-04-14T07:10:34.145Z,8.65
2023-04-14T07:13:08.206Z,8.51
2023-04-14T07:15:35.081Z,8.51
2023-04-14T07:18:25.424Z,8.54
2023-04-14T07:20:54.175Z,8.61
2023-04-14T07:23:22.778Z,8.62
2023-04-14T07:26:05.135Z,8.78
2023-04-14T07:28:32.516Z,8.95
2023-04-14T07:31:09.309Z,9.02
2023-04-14T07:33:37.208Z,9.16
2023-04-14T07:36:09.841Z,9.35
2023-04-14T07:38:37.396Z,9.43
2023-04-14T07:41:07.626Z,9.57
2023-04-14T07:43:38.166Z,9.62
2023-04-14T07:46:09.571Z,9.75
2023-04-14T07:48:46.055Z,9.85
2023-04-14T07:51:12.996Z,9.96
2023-04-14T07:53:43.328Z,10.12
2023-04-14T07:56:10.841Z,10.23
2023-04-14T07:58:38.355Z,10.33
2023-04-14T08:01:21.264Z,10.53
2023-04-14T08:03:48.335Z,10.68
2023-04-14T08:06:16.856Z,10.79
2023-04-14T08:08:49.391Z,10.92
2023-04-14T08:11:16.087Z,10.97
2023-04-14T08:13:44.239Z,11.00
2023-04-14T08:16:14.363Z,11.11
2023-04-14T08:18:44.525Z,11.21
2023-04-14T08:21:12.035Z,11.19
2023-04-14T08:23:44.809Z,11.05
2023-04-14T08:26:18.428Z,11.18
2023-04-14T08:28:48.251Z,11.19
2023-04-14T08:31:18.162Z,11.19
2023-04-14T08:33:44.951Z,11.33
2023-04-14T08:36:20.538Z,11.32
2023-04-14T08:38:47.412Z,11.29
2023-04-14T08:41:15.775Z,11.41
2023-04-14T08:43:45.954Z,11.39
2023-04-14T08:46:20.736Z,11.29
2023-04-14T08:48:51.439Z,11.42
2023-04-14T08:51:44.578Z,11.52
2023-04-14T08:54:21.404Z,11.52
2023-04-14T08:56:53.156Z,11.56
2023-04-14T08:59:21.424Z,11.58
2023-04-14T09:01:57.118Z,11.71
2023-04-14T09:04:25.142Z,11.59
2023-04-14T09:06:57.187Z,11.75
2023-04-14T09:09:27.248Z,11.79
2023-04-14T09:11:54.990Z,11.98
2023-04-14T09:14:23.654Z,12.07
2023-04-14T09:16:53.864Z,12.14
2023-04-14T09:19:28.332Z,12.20
2023-04-14T09:21:59.163Z,12.34
2023-04-14T09:24:34.187Z,12.42
2023-04-14T09:27:11.115Z,12.23
2023-04-14T09:29:37.970Z,12.35
2023-04-14T09:32:11.722Z,12.36
2023-04-14T09:35:08.405Z,12.27
2023-04-14T09:37:47.576Z,12.29
2023-04-14T09:40:32.764Z,12.36
2023-04-14T09:43:01.024Z,12.26
2023-04-14T09:45:47.963Z,12.24
2023-04-14T09:48:14.742Z,12.23
2023-04-14T09:51:11.125Z,12.28
2023-04-14T09:53:48.595Z,12.43
2023-04-14T09:56:20.397Z,12.55
2023-04-14T11:49:32.099Z,12.70
2023-04-14T11:52:08.176Z,12.73
2023-04-14T11:54:49.627Z,12.63
2023-04-14T11:57:17.624Z,12.67
2023-04-14T11:59:47.585Z,12.97
2023-04-14T12:02:22.188Z,12.96
2023-04-14T12:04:52.575Z,13.32
2023-04-14T12:07:20.662Z,13.52
2023-04-14T12:09:51.567Z,13.50
2023-04-14T12:12:24.100Z,13.61
2023-04-14T12:14:51.290Z,13.58
2023-04-14T12:17:21.066Z,13.61
2023-04-14T12:19:49.019Z,13.68
2023-04-14T12:22:30.996Z,13.58
2023-04-14T12:25:19.162Z,13.57
2023-04-14T12:27:55.819Z,13.62
2023-04-14T12:30:26.844Z,13.70
2023-04-14T12:32:53.722Z,13.87
2023-04-14T12:35:25.063Z,14.02
2023-04-14T12:37:55.053Z,13.91
2023-04-14T12:40:48.582Z,13.89
2023-04-14T12:43:30.696Z,13.98
2023-04-14T12:45:58.962Z,14.17
2023-04-14T12:48:48.303Z,14.13
2023-04-14T12:51:19.828Z,14.11
2023-04-14T12:53:52.761Z,14.12
2023-04-14T12:56:24.060Z,13.99
2023-04-14T12:58:51.534Z,13.93
2023-04-14T13:01:24.747Z,14.04
2023-04-14T13:03:57.852Z,14.03
2023-04-14T13:06:25.787Z,14.09
2023-04-14T13:08:56.218Z,14.08
2023-04-14T13:11:26.795Z,13.89
2023-04-14T13:13:54.067Z,13.46
2023-04-14T13:16:26.457Z,13.81
2023-04-14T13:18:58.946Z,13.83
2023-04-14T13:21:28.523Z,14.01
2023-04-14T13:23:55.395Z,14.05
2023-04-14T13:26:25.296Z,14.07
2023-04-14T13:28:57.636Z,14.17
2023-04-14T13:31:29.788Z,14.30
2023-04-14T13:34:04.203Z,14.39
2023-04-14T13:36:30.942Z,14.31
2023-04-14T13:38:58.412Z,14.26
2023-04-14T13:41:28.298Z,14.64
2023-04-14T13:43:55.643Z,14.87
2023-04-14T13:46:26.926Z,14.87
2023-04-14T13:48:56.741Z,15.18
2023-04-14T13:51:36.936Z,15.54
2023-04-14T13:54:03.803Z,16.18
2023-04-14T13:56:30.830Z,16.59
2023-04-14T13:58:57.720Z,17.08
2023-04-14T14:01:27.381Z,17.10
2023-04-14T14:03:54.431Z,17.04
2023-04-14T14:06:48.437Z,17.54
2023-04-14T14:09:27.172Z,17.91
2023-04-14T14:12:02.684Z,17.45
2023-04-14T14:14:42.052Z,17.54
2023-04-14T14:17:21.034Z,17.26
2023-04-14T14:19:50.447Z,17.27
2023-04-14T14:22:23.398Z,17.23
2023-04-14T14:24:51.470Z,17.06
2023-04-14T14:27:18.318Z,16.24
2023-04-14T14:29:45.262Z,15.90
2023-04-14T14:32:12.272Z,14.92
2023-04-14T14:34:48.048Z,15.29
2023-04-14T14:37:18.780Z,15.20
2023-04-14T14:39:49.293Z,14.63
2023-04-14T14:42:19.540Z,15.50
2023-04-14T14:44:49.581Z,15.88
2023-04-14T14:47:38.007Z,16.00
2023-04-14T14:50:11.265Z,15.79
2023-04-14T14:52:50.675Z,16.27
2023-04-14T14:55:26.216Z,16.22
2023-04-14T14:57:53.239Z,16.05
2023-04-14T15:00:23.409Z,15.64
2023-04-14T15:02:50.657Z,15.22
2023-04-14T15:05:20.956Z,14.42
2023-04-14T15:07:47.800Z,13.44
2023-04-14T15:10:17.982Z,13.70
2023-04-14T15:12:54.874Z,13.74
2023-04-14T15:15:57.569Z,13.50
2023-04-14T15:18:26.850Z,13.26
2023-04-14T15:20:54.436Z,13.44
2023-04-14T15:23:26.699Z,13.55
2023-04-14T15:25:53.653Z,13.34
2023-04-14T15:28:22.473Z,13.04
2023-04-14T15:30:49.245Z,12.51
2023-04-14T15:33:18.770Z,12.42
2023-04-14T15:35:48.049Z,12.17
2023-04-14T15:38:25.490Z,12.00
2023-04-14T15:40:57.228Z,11.99
2023-04-14T15:43:24.036Z,11.91
2023-04-14T15:45:54.374Z,11.80
2023-04-14T15:48:24.019Z,11.91
2023-04-14T15:50:51.237Z,11.97
2023-04-14T15:53:26.221Z,11.73
2023-04-14T15:55:55.504Z,11.78
2023-04-14T15:58:22.757Z,11.57
2023-04-14T16:00:53.357Z,11.60
2023-04-14T16:03:46.136Z,11.51
2023-04-14T16:06:15.781Z,11.46
2023-04-14T16:08:45.273Z,11.45
2023-04-14T16:11:25.420Z,11.46
2023-04-14T16:13:52.981Z,11.49
2023-04-14T16:16:29.020Z,11.35
2023-04-14T16:18:58.630Z,11.10
2023-04-14T16:21:30.339Z,11.03
2023-04-14T16:24:07.827Z,10.79
2023-04-14T17:26:58.210Z,8.05
2023-04-14T17:59:24.469Z,7.59
2023-04-14T18:23:35.280Z,7.26
2023-04-14T18:31:38.021Z,7.20
2023-04-14T18:34:10.567Z,7.19
2023-04-14T19:31:33.693Z,6.45
2023-04-14T20:50:49.577Z,6.18
2023-04-14T21:34:10.912Z,6.18
2023-04-14T22:28:48.652Z,6.31
2023-04-14T22:42:19.212Z,6.33
2023-04-14T22:44:48.151Z,6.37
2023-04-14T22:47:15.561Z,6.38
2023-04-14T22:49:43.730Z,6.38
2023-04-14T22:52:10.606Z,6.39
2023-04-14T22:54:39.973Z,6.40
2023-04-14T22:57:06.819Z,6.37
2023-04-14T22:59:46.751Z,6.41
2023-04-14T23:02:13.637Z,6.43
2023-04-14T23:04:43.310Z,6.45
2023-04-14T23:07:15.794Z,6.44
2023-04-14T23:09:45.864Z,6.46
2023-04-14T23:12:12.567Z,6.45
2023-04-14T23:14:44.981Z,6.44
2023-04-14T23:17:11.943Z,6.49
2023-04-14T23:19:46.647Z,6.50
2023-04-14T23:22:14.592Z,6.49
2023-04-14T23:24:50.624Z,6.47
2023-04-14T23:27:20.205Z,6.52
2023-04-14T23:29:46.905Z,6.52
2023-04-14T23:32:16.789Z,6.51
2023-04-14T23:34:46.913Z,6.53
2023-04-14T23:37:13.608Z,6.55
2023-04-14T23:39:43.463Z,6.55
2023-04-14T23:42:10.203Z,6.53
2023-04-14T23:44:43.170Z,6.61
2023-04-14T23:47:10.471Z,6.61
2023-04-14T23:49:37.504Z,6.58
2023-04-14T23:52:07.708Z,6.61
2023-04-14T23:54:40.920Z,6.63
2023-04-14T23:57:07.797Z,6.64
2023-04-14T23:59:38.213Z,6.67
